createdAt,value
2023-05-03T00:02:20.011Z,102525.66
2023-05-03T00:04:48.604Z,102522.16
2023-05-03T00:07:18.312Z,102515.38
2023-05-03T00:09:46.063Z,102510.22
2023-05-03T00:12:13.880Z,102519.31
2023-05-03T00:14:41.629Z,102498.53
2023-05-03T00:17:09.480Z,102486.25
2023-05-03T00:19:37.563Z,102496.09
2023-05-03T00:22:05.280Z,102501.72
2023-05-03T00:24:34.406Z,102493.66
2023-05-03T00:27:02.141Z,102496.13
2023-05-03T00:29:29.868Z,102479.66
2023-05-03T00:31:57.648Z,102468.09
2023-05-03T00:34:25.434Z,102472.28
2023-05-03T00:36:53.578Z,102462.63
2023-05-03T00:39:21.740Z,102465.25
2023-05-03T00:41:50.823Z,102458.69
2023-05-03T00:44:18.532Z,102475.75
2023-05-03T00:46:46.344Z,102472.47
2023-05-03T00:49:14.173Z,102466.94
2023-05-03T00:51:43.718Z,102457.22
2023-05-03T00:54:12.336Z,102440.66
2023-05-03T00:56:51.154Z,102447.09
2023-05-03T00:59:21.526Z,102428.84
2023-05-03T01:01:50.969Z,102437.94
2023-05-03T01:04:19.339Z,102416.47
2023-05-03T01:06:56.735Z,102411.88
2023-05-03T01:09:34.097Z,102389.22
2023-05-03T01:12:12.983Z,102389.81
2023-05-03T01:14:52.082Z,102364.56
2023-05-03T01:17:29.065Z,102371.00
2023-05-03T01:20:02.458Z,102370.94
2023-05-03T01:22:38.438Z,102375.22
2023-05-03T01:25:10.436Z,102353.91
2023-05-03T01:27:45.066Z,102355.59
2023-05-03T01:30:14.023Z,102354.81
2023-05-03T01:32:52.324Z,102351.88
2023-05-03T01:35:27.592Z,102364.63
2023-05-03T01:37:57.033Z,102373.59
2023-05-03T01:40:28.735Z,102369.31
2023-05-03T01:42:57.829Z,102372.47
2023-05-03T01:45:26.710Z,102344.31
2023-05-03T01:47:54.472Z,102349.94
2023-05-03T01:50:22.284Z,102353.81
2023-05-03T01:52:52.443Z,102331.66
2023-05-03T01:55:20.226Z,102343.69
2023-05-03T01:57:49.322Z,102335.94
2023-05-03T02:00:17.290Z,102337.94
2023-05-03T02:02:45.036Z,102342.38
2023-05-03T02:05:13.625Z,102346.00
2023-05-03T02:07:41.421Z,102339.63
2023-05-03T02:10:14.402Z,102336.75
2023-05-03T02:12:42.507Z,102320.13
2023-05-03T02:15:13.917Z,102333.03
2023-05-03T02:17:43.963Z,102341.69
2023-05-03T02:20:12.524Z,102329.78
2023-05-03T02:22:40.431Z,102344.47
2023-05-03T02:25:08.767Z,102350.94
2023-05-03T02:27:36.546Z,102351.31
2023-05-03T02:30:05.246Z,102339.34
2023-05-03T02:32:34.746Z,102336.25
2023-05-03T02:35:03.128Z,102349.63
2023-05-03T02:37:30.945Z,102348.00
2023-05-03T02:39:58.721Z,102351.44
2023-05-03T02:42:26.432Z,102378.00
2023-05-03T02:44:54.157Z,102379.69
2023-05-03T02:47:22.004Z,102374.13
2023-05-03T02:49:51.344Z,102368.94
2023-05-03T02:52:19.068Z,102360.09
2023-05-03T02:54:49.484Z,102352.22
2023-05-03T02:57:17.287Z,102355.66
2023-05-03T02:59:45.258Z,102352.81
2023-05-03T03:02:13.014Z,102375.59
2023-05-03T03:04:40.724Z,102379.22
2023-05-03T03:07:09.808Z,102381.16
2023-05-03T03:09:37.537Z,102392.03
2023-05-03T03:12:06.864Z,102384.59
2023-05-03T03:14:34.614Z,102384.78
2023-05-03T03:17:02.865Z,102403.34
2023-05-03T03:19:30.767Z,102410.50
2023-05-03T03:21:58.497Z,102402.41
2023-05-03T03:24:27.798Z,102414.28
2023-05-03T03:26:55.524Z,102415.41
2023-05-03T03:29:23.246Z,102415.41
2023-05-03T03:31:50.996Z,102432.16
2023-05-03T03:34:18.858Z,102441.06
2023-05-03T03:36:46.580Z,102429.88
2023-05-03T03:39:14.299Z,102438.31
2023-05-03T03:41:43.505Z,102433.44
2023-05-03T03:44:11.296Z,102434.53
2023-05-03T03:46:39.092Z,102418.31
2023-05-03T03:49:08.128Z,102417.88
2023-05-03T03:51:36.046Z,102439.22
2023-05-03T03:54:03.802Z,102419.00
2023-05-03T03:56:31.659Z,102438.06
2023-05-03T03:59:00.812Z,102462.63
2023-05-03T04:01:28.574Z,102452.44
2023-05-03T04:03:56.407Z,102442.28
2023-05-03T04:06:24.481Z,102455.25
2023-05-03T04:08:52.227Z,102439.00
2023-05-03T04:11:21.528Z,102459.84
2023-05-03T04:13:49.441Z,102456.06
2023-05-03T04:16:18.978Z,102468.81
2023-05-03T04:18:46.944Z,102479.72
2023-05-03T04:21:14.682Z,102484.97
2023-05-03T04:23:42.610Z,102503.63
2023-05-03T04:26:23.571Z,102508.91
2023-05-03T04:28:58.226Z,102476.69
2023-05-03T04:31:28.388Z,102477.81
2023-05-03T04:33:56.726Z,102488.19
2023-05-03T04:36:25.919Z,102507.34
2023-05-03T04:38:53.783Z,102517.78
2023-05-03T04:41:21.512Z,102524.56
2023-05-03T04:43:49.279Z,102546.09
2023-05-03T04:46:18.566Z,102551.78
2023-05-03T04:48:47.759Z,102556.56
2023-05-03T04:51:15.555Z,102561.94
2023-05-03T04:53:43.282Z,102574.72
2023-05-03T04:56:11.026Z,102568.34
2023-05-03T04:58:38.814Z,102586.47
2023-05-03T05:01:07.330Z,102593.75
2023-05-03T05:03:35.267Z,102592.69
2023-05-03T05:06:04.614Z,102613.78
2023-05-03T05:08:32.371Z,102608.38
2023-05-03T05:11:00.205Z,102591.47
2023-05-03T05:13:28.040Z,102577.09
2023-05-03T05:15:55.769Z,102598.44
2023-05-03T05:18:23.534Z,102577.22
2023-05-03T05:20:51.279Z,102585.75
2023-05-03T05:23:20.469Z,102587.38
2023-05-03T05:25:48.404Z,102573.13
2023-05-03T05:28:16.260Z,102566.19
2023-05-03T05:30:43.956Z,102610.78
2023-05-03T05:33:11.735Z,102593.47
2023-05-03T05:35:39.520Z,102580.41
2023-05-03T05:38:07.447Z,102592.66
2023-05-03T05:40:36.549Z,102600.28
2023-05-03T05:43:04.311Z,102604.94
2023-05-03T05:45:32.105Z,102616.50
2023-05-03T05:47:59.852Z,102623.41
2023-05-03T05:50:27.747Z,102627.25
2023-05-03T05:52:55.497Z,102643.13
2023-05-03T05:55:23.187Z,102669.66
2023-05-03T05:57:52.284Z,102678.22
2023-05-03T06:00:21.555Z,102680.13
2023-05-03T06:02:50.017Z,102698.78
2023-05-03T06:05:18.031Z,102688.75
2023-05-03T06:07:45.781Z,102698.38
2023-05-03T06:10:13.643Z,102694.03
2023-05-03T06:12:41.445Z,102712.44
2023-05-03T06:15:11.130Z,102694.00
2023-05-03T06:17:38.986Z,102707.06
2023-05-03T06:20:11.695Z,102722.28
2023-05-03T06:22:39.435Z,102723.63
2023-05-03T06:25:08.125Z,102724.97
2023-05-03T06:27:36.617Z,102726.28
2023-05-03T06:30:05.641Z,102709.75
2023-05-03T06:32:34.984Z,102702.97
2023-05-03T06:35:03.580Z,102725.84
2023-05-03T06:37:31.287Z,102730.63
2023-05-03T06:39:59.011Z,102742.53
2023-05-03T06:42:27.702Z,102734.41
2023-05-03T06:44:55.416Z,102729.47
2023-05-03T06:47:23.129Z,102740.44
2023-05-03T06:49:52.467Z,102745.28
2023-05-03T06:52:20.172Z,102751.97
2023-05-03T06:54:47.896Z,102766.09
2023-05-03T06:57:15.664Z,102764.28
2023-05-03T06:59:43.452Z,102763.34
2023-05-03T07:02:11.324Z,102777.16
2023-05-03T07:04:39.785Z,102781.22
2023-05-03T07:07:09.000Z,102775.41
2023-05-03T07:12:09.718Z,102775.28
2023-05-03T07:14:37.489Z,102765.09
2023-05-03T07:17:05.261Z,102753.59
2023-05-03T07:19:33.018Z,102755.31
2023-05-03T07:22:02.795Z,102767.41
2023-05-03T07:24:31.871Z,102770.84
2023-05-03T07:26:59.818Z,102772.47
2023-05-03T07:29:28.648Z,102770.78
2023-05-03T07:31:56.434Z,102778.00
2023-05-03T07:34:24.154Z,102770.75
2023-05-03T07:36:52.034Z,102778.22
2023-05-03T07:39:19.855Z,102793.78
2023-05-03T07:41:49.146Z,102777.84
2023-05-03T07:44:16.925Z,102781.91
2023-05-03T07:46:44.655Z,102779.56
2023-05-03T07:49:12.388Z,102788.06
2023-05-03T07:51:41.140Z,102778.44
2023-05-03T07:54:09.129Z,102785.69
2023-05-03T07:56:36.855Z,102782.91
2023-05-03T07:59:10.120Z,102781.50
2023-05-03T08:01:38.485Z,102784.00
2023-05-03T08:04:06.913Z,102792.91
2023-05-03T08:06:36.501Z,102798.34
2023-05-03T08:09:04.849Z,102808.03
2023-05-03T08:11:32.772Z,102791.84
2023-05-03T08:14:00.526Z,102795.66
2023-05-03T08:16:29.837Z,102804.84
2023-05-03T08:18:57.654Z,102802.28
2023-05-03T08:21:26.172Z,102798.75
2023-05-03T08:23:54.647Z,102797.94
2023-05-03T08:26:24.230Z,102809.06
2023-05-03T08:28:52.129Z,102810.28
2023-05-03T08:31:19.969Z,102818.75
2023-05-03T08:33:49.113Z,102809.22
2023-05-03T08:36:16.906Z,102816.06
2023-05-03T08:38:44.579Z,102813.09
2023-05-03T08:41:20.098Z,102804.59
2023-05-03T08:43:53.477Z,102813.44
2023-05-03T08:46:21.537Z,102814.28
2023-05-03T08:48:52.688Z,102821.38
2023-05-03T08:51:21.536Z,102815.09
2023-05-03T08:53:49.491Z,102821.59
2023-05-03T08:56:25.134Z,102824.34
2023-05-03T08:58:53.317Z,102833.38
2023-05-03T09:01:21.138Z,102823.47
2023-05-03T09:03:53.517Z,102831.06
2023-05-03T09:06:23.154Z,102832.22
2023-05-03T09:08:50.910Z,102837.28
2023-05-03T09:11:22.753Z,102837.66
2023-05-03T09:13:51.548Z,102833.47
2023-05-03T09:16:24.306Z,102841.06
2023-05-03T09:19:00.899Z,102842.50
2023-05-03T09:21:28.796Z,102836.41
2023-05-03T09:23:56.592Z,102847.84
2023-05-03T09:26:31.483Z,102841.34
2023-05-03T09:29:00.747Z,102848.75
2023-05-03T09:31:29.543Z,102841.97
2023-05-03T09:33:57.793Z,102858.81
2023-05-03T09:36:27.643Z,102866.03
2023-05-03T09:38:56.417Z,102855.53
2023-05-03T09:41:31.614Z,102855.41
2023-05-03T09:44:02.979Z,102862.47
2023-05-03T09:46:32.058Z,102856.13
2023-05-03T09:49:01.167Z,102854.44
2023-05-03T09:51:31.949Z,102852.81
2023-05-03T09:54:00.621Z,102855.28
2023-05-03T09:56:28.376Z,102846.13
2023-05-03T09:58:56.100Z,102840.22
2023-05-03T10:01:25.919Z,102833.69
2023-05-03T10:03:58.023Z,102838.59
2023-05-03T10:06:27.990Z,102840.66
2023-05-03T10:09:06.202Z,102839.66
2023-05-03T10:11:36.279Z,102823.72
2023-05-03T10:14:06.605Z,102825.88
2023-05-03T10:16:38.525Z,102830.50
2023-05-03T10:19:12.886Z,102828.19
2023-05-03T10:21:55.186Z,102829.38
2023-05-03T10:24:24.374Z,102831.59
2023-05-03T10:26:53.132Z,102832.78
2023-05-03T10:29:49.786Z,102829.72
2023-05-03T10:32:34.616Z,102823.88
2023-05-03T10:35:05.635Z,102806.63
2023-05-03T10:37:36.069Z,102811.59
2023-05-03T10:40:11.421Z,102815.84
2023-05-03T10:42:46.281Z,102811.41
2023-05-03T10:45:25.152Z,102814.22
2023-05-03T10:48:20.700Z,102808.47
2023-05-03T10:50:51.779Z,102817.22
2023-05-03T10:53:40.043Z,102817.34
2023-05-03T10:56:10.804Z,102811.72
2023-05-03T10:58:39.910Z,102816.38
2023-05-03T11:01:10.222Z,102817.03
2023-05-03T11:03:54.878Z,102820.47
2023-05-03T11:06:31.421Z,102811.97
2023-05-03T11:08:59.357Z,102818.09
2023-05-03T11:11:28.654Z,102807.81
2023-05-03T11:13:56.489Z,102810.66
2023-05-03T11:16:24.741Z,102823.72
2023-05-03T11:18:53.225Z,102830.31
2023-05-03T11:21:22.042Z,102825.63
2023-05-03T11:23:49.917Z,102818.91
2023-05-03T11:26:18.832Z,102808.31
2023-05-03T11:28:47.893Z,102805.22
2023-05-03T11:31:15.752Z,102814.13
2023-05-03T11:33:43.924Z,102806.34
2023-05-03T11:36:13.717Z,102811.69
2023-05-03T11:38:41.427Z,102808.31
2023-05-03T11:41:15.455Z,102823.59
2023-05-03T11:43:43.800Z,102809.69
2023-05-03T11:46:14.375Z,102809.66
2023-05-03T11:48:45.005Z,102803.44
2023-05-03T11:51:13.863Z,102789.91
2023-05-03T11:53:42.881Z,102808.16
2023-05-03T11:56:14.091Z,102797.69
2023-05-03T11:58:52.092Z,102790.06
2023-05-03T12:01:22.762Z,102798.53
2023-05-03T12:03:54.748Z,102789.78
2023-05-03T12:06:24.100Z,102792.75
2023-05-03T12:08:52.436Z,102797.50
2023-05-03T12:11:21.856Z,102804.69
2023-05-03T12:13:58.391Z,102804.78
2023-05-03T12:16:28.413Z,102790.41
2023-05-03T12:19:03.098Z,102811.38
2023-05-03T12:21:54.080Z,102819.47
2023-05-03T12:24:28.709Z,102813.06
2023-05-03T12:26:57.813Z,102804.03
2023-05-03T12:29:26.216Z,102806.66
2023-05-03T12:31:59.077Z,102809.72
2023-05-03T12:37:04.451Z,102808.59
2023-05-03T12:39:33.728Z,102794.78
2023-05-03T12:44:35.330Z,102827.56
2023-05-03T12:47:06.526Z,102809.19
2023-05-03T12:49:39.022Z,102813.94
2023-05-03T12:52:34.757Z,102800.44
2023-05-03T12:54:56.194Z,102801.50
2023-05-03T12:57:24.754Z,102795.13
2023-05-03T13:00:01.598Z,102805.75
2023-05-03T13:05:11.319Z,102796.78
2023-05-03T13:07:43.931Z,102808.50
2023-05-03T13:12:46.721Z,102797.16
2023-05-03T13:15:14.658Z,102796.66
2023-05-03T13:17:46.724Z,102795.91
2023-05-03T13:20:15.118Z,102806.50
2023-05-03T13:22:42.845Z,102793.56
2023-05-03T13:25:10.797Z,102788.09
2023-05-03T13:27:38.509Z,102787.59
2023-05-03T13:30:07.591Z,102789.19
2023-05-03T13:32:35.331Z,102805.47
2023-05-03T13:35:05.324Z,102790.38
2023-05-03T13:37:33.453Z,102794.59
2023-05-03T13:40:01.455Z,102805.41
2023-05-03T13:42:29.507Z,102791.03
2023-05-03T13:44:57.264Z,102793.41
2023-05-03T13:47:26.983Z,102783.38
2023-05-03T13:49:57.360Z,102792.94
2023-05-03T13:52:26.452Z,102791.81
2023-05-03T13:54:54.504Z,102789.88
2023-05-03T13:57:23.075Z,102776.50
2023-05-03T13:59:51.734Z,102770.69
2023-05-03T14:02:19.492Z,102773.00
2023-05-03T14:04:47.668Z,102775.31
2023-05-03T14:07:15.372Z,102768.16
2023-05-03T14:09:44.519Z,102778.97
2023-05-03T14:12:12.301Z,102779.44
2023-05-03T14:14:39.987Z,102762.50
2023-05-03T14:17:08.297Z,102764.81
2023-05-03T14:19:37.010Z,102777.53
2023-05-03T14:22:04.842Z,102755.44
2023-05-03T14:24:32.596Z,102770.47
2023-05-03T14:27:01.836Z,102771.81
2023-05-03T14:29:29.645Z,102775.25
2023-05-03T14:31:57.629Z,102783.88
2023-05-03T14:34:25.370Z,102774.31
2023-05-03T14:36:53.237Z,102769.38
2023-05-03T14:39:21.003Z,102777.81
2023-05-03T14:41:51.046Z,102774.47
2023-05-03T14:44:20.613Z,102764.78
2023-05-03T14:46:48.346Z,102756.34
2023-05-03T14:49:17.572Z,102764.81
2023-05-03T14:51:45.474Z,102763.88
2023-05-03T14:54:13.221Z,102751.53
2023-05-03T14:56:40.978Z,102759.81
2023-05-03T14:59:09.132Z,102766.75
2023-05-03T15:01:38.415Z,102761.44
2023-05-03T15:04:07.679Z,102761.88
2023-05-03T15:06:38.985Z,102755.38
2023-05-03T15:09:08.611Z,102760.63
2023-05-03T15:11:36.381Z,102763.50
2023-05-03T15:14:04.082Z,102774.28
2023-05-03T15:16:31.917Z,102775.09
2023-05-03T15:19:01.596Z,102773.72
2023-05-03T15:21:29.503Z,102772.72
2023-05-03T15:23:58.063Z,102770.31
2023-05-03T15:26:25.804Z,102771.38
2023-05-03T15:28:53.533Z,102778.38
2023-05-03T15:31:21.771Z,102779.50
2023-05-03T15:33:49.675Z,102782.31
2023-05-03T15:36:18.746Z,102772.53
2023-05-03T15:38:46.768Z,102765.06
2023-05-03T15:41:14.544Z,102763.16
2023-05-03T15:43:42.626Z,102767.97
2023-05-03T15:46:10.523Z,102767.41
2023-05-03T15:48:38.317Z,102760.28
2023-05-03T15:51:06.220Z,102760.38
2023-05-03T15:53:35.363Z,102759.56
2023-05-03T15:56:03.996Z,102757.28
2023-05-03T15:58:31.925Z,102751.44
2023-05-03T16:01:00.240Z,102755.25
2023-05-03T16:03:28.732Z,102759.47
2023-05-03T16:05:56.688Z,102755.34
2023-05-03T16:08:24.497Z,102753.03
2023-05-03T16:10:53.809Z,102739.19
2023-05-03T16:13:22.013Z,102747.63
2023-05-03T16:15:52.471Z,102748.59
2023-05-03T16:18:20.469Z,102741.00
2023-05-03T16:20:48.205Z,102735.41
2023-05-03T16:23:15.977Z,102742.22
2023-05-03T16:25:43.852Z,102734.56
2023-05-03T16:28:12.968Z,102750.28
2023-05-03T16:30:41.077Z,102739.91
2023-05-03T16:33:08.958Z,102737.31
2023-05-03T16:35:36.746Z,102736.94
2023-05-03T16:38:04.625Z,102721.69
2023-05-03T16:40:32.768Z,102748.28
2023-05-03T16:43:00.516Z,102743.56
2023-05-03T16:45:29.746Z,102736.81
2023-05-03T16:47:57.822Z,102747.28
2023-05-03T16:50:25.883Z,102737.78
2023-05-03T16:52:53.647Z,102737.22
2023-05-03T16:55:23.335Z,102733.13
2023-05-03T16:57:51.084Z,102734.19
2023-05-03T17:00:20.885Z,102721.53
2023-05-03T17:02:50.070Z,102718.00
2023-05-03T17:05:19.980Z,102726.59
2023-05-03T17:07:47.689Z,102723.34
2023-05-03T17:10:15.721Z,102721.69
2023-05-03T17:12:43.509Z,102724.75
2023-05-03T17:15:12.616Z,102724.69
2023-05-03T17:17:40.436Z,102725.81
2023-05-03T17:20:12.842Z,102721.63
2023-05-03T17:22:40.604Z,102725.03
2023-05-03T17:25:09.694Z,102717.84
2023-05-03T17:27:38.325Z,102713.97
2023-05-03T17:30:08.549Z,102718.59
2023-05-03T17:32:36.605Z,102718.06
2023-05-03T17:35:04.620Z,102715.28
2023-05-03T17:37:33.726Z,102703.84
2023-05-03T17:40:01.566Z,102707.56
2023-05-03T17:42:29.414Z,102704.50
2023-05-03T17:44:57.954Z,102707.66
2023-05-03T17:47:25.804Z,102715.00
2023-05-03T17:49:53.941Z,102708.00
2023-05-03T17:52:22.017Z,102706.66
2023-05-03T17:54:52.362Z,102704.47
2023-05-03T17:57:21.472Z,102710.81
2023-05-03T17:59:49.217Z,102705.69
2023-05-03T18:02:17.857Z,102710.69
2023-05-03T18:04:45.607Z,102711.25
2023-05-03T18:07:13.412Z,102718.56
2023-05-03T18:09:41.159Z,102711.25
2023-05-03T18:12:10.267Z,102709.97
2023-05-03T18:14:38.060Z,102712.94
2023-05-03T18:17:07.425Z,102712.81
2023-05-03T18:19:35.157Z,102711.56
2023-05-03T18:22:03.027Z,102712.38
2023-05-03T18:24:30.703Z,102710.34
2023-05-03T18:26:58.454Z,102712.66
2023-05-03T18:29:28.279Z,102713.03
2023-05-03T18:31:57.474Z,102703.44
2023-05-03T18:34:26.777Z,102714.53
2023-05-03T18:36:54.566Z,102718.88
2023-05-03T18:39:22.887Z,102712.44
2023-05-03T18:41:50.675Z,102712.97
2023-05-03T18:44:18.384Z,102711.59
2023-05-03T18:46:47.557Z,102712.06
2023-05-03T18:49:15.275Z,102713.41
2023-05-03T18:51:43.021Z,102717.19
2023-05-03T18:54:10.790Z,102710.00
2023-05-03T18:56:38.501Z,102722.00
2023-05-03T18:59:06.386Z,102717.44
2023-05-03T19:01:34.527Z,102723.91
2023-05-03T19:04:04.485Z,102717.06
2023-05-03T19:06:32.272Z,102718.78
2023-05-03T19:09:00.018Z,102716.81
2023-05-03T19:11:27.760Z,102721.03
2023-05-03T19:13:55.497Z,102724.09
2023-05-03T19:16:23.305Z,102714.31
2023-05-03T19:18:51.248Z,102720.41
2023-05-03T19:21:20.568Z,102726.00
2023-05-03T19:23:48.355Z,102724.47
2023-05-03T19:26:16.070Z,102727.09
2023-05-03T19:28:44.233Z,102722.97
2023-05-03T19:31:12.035Z,102730.00
2023-05-03T19:33:39.819Z,102728.00
2023-05-03T19:36:07.886Z,102723.88
2023-05-03T19:38:37.031Z,102729.06
2023-05-03T19:41:07.946Z,102731.47
2023-05-03T19:43:35.673Z,102728.66
2023-05-03T19:46:04.151Z,102724.66
2023-05-03T19:48:32.182Z,102726.03
2023-05-03T19:51:00.001Z,102727.63
2023-05-03T19:53:27.975Z,102727.31
2023-05-03T19:55:58.678Z,102732.34
2023-05-03T19:58:27.282Z,102730.91
2023-05-03T20:00:55.631Z,102729.91
2023-05-03T20:03:24.558Z,102728.53
2023-05-03T20:05:52.679Z,102731.50
2023-05-03T20:08:20.478Z,102736.97
2023-05-03T20:10:49.805Z,102731.16
2023-05-03T20:13:19.056Z,102722.56
2023-05-03T20:15:48.017Z,102727.09
2023-05-03T20:18:15.913Z,102734.59
2023-05-03T20:20:43.634Z,102732.00
2023-05-03T20:23:11.915Z,102728.28
2023-05-03T20:25:39.718Z,102738.34
2023-05-03T20:28:07.974Z,102737.00
2023-05-03T20:30:37.203Z,102737.91
2023-05-03T20:33:05.395Z,102735.63
2023-05-03T20:35:33.178Z,102728.25
2023-05-03T20:38:00.967Z,102724.75
2023-05-03T20:40:28.735Z,102729.00
2023-05-03T20:42:56.429Z,102724.16
2023-05-03T20:45:24.241Z,102724.03
2023-05-03T20:47:53.434Z,102721.91
2023-05-03T20:50:21.485Z,102731.44
2023-05-03T20:52:49.200Z,102722.75
2023-05-03T20:55:17.082Z,102713.50
2023-05-03T20:57:44.854Z,102724.00
2023-05-03T21:00:15.749Z,102722.78
2023-05-03T21:02:44.004Z,102723.56
2023-05-03T21:05:13.261Z,102715.56
2023-05-03T21:07:40.992Z,102713.88
2023-05-03T21:10:10.038Z,102710.47
2023-05-03T21:12:37.806Z,102710.84
2023-05-03T21:15:06.613Z,102701.47
2023-05-03T21:17:34.388Z,102711.75
2023-05-03T21:20:02.428Z,102704.09
2023-05-03T21:22:32.227Z,102699.78
2023-05-03T21:25:00.365Z,102697.56
2023-05-03T21:27:28.137Z,102698.63
2023-05-03T21:29:55.877Z,102710.72
2023-05-03T21:32:23.723Z,102697.59
2023-05-03T21:34:51.607Z,102704.63
2023-05-03T21:37:19.352Z,102703.38
2023-05-03T21:40:00.411Z,102694.09
2023-05-03T21:42:29.590Z,102691.63
2023-05-03T21:44:57.664Z,102694.78
2023-05-03T21:47:27.592Z,102696.19
2023-05-03T21:49:55.569Z,102693.56
2023-05-03T21:52:23.329Z,102687.69
2023-05-03T21:54:53.247Z,102683.03
2023-05-03T21:57:21.078Z,102691.59
2023-05-03T21:59:49.399Z,102688.50
2023-05-03T22:02:17.192Z,102683.56
2023-05-03T22:04:45.315Z,102683.88
2023-05-03T22:07:13.199Z,102677.56
2023-05-03T22:09:40.895Z,102682.03
2023-05-03T22:12:22.346Z,102673.59
2023-05-03T22:14:51.554Z,102679.56
2023-05-03T22:17:19.383Z,102685.69
2023-05-03T22:19:47.124Z,102687.91
2023-05-03T22:22:14.869Z,102670.81
2023-05-03T22:24:42.572Z,102668.47
2023-05-03T22:27:11.702Z,102657.75
2023-05-03T22:29:39.434Z,102644.56
2023-05-03T22:32:07.999Z,102651.56
2023-05-03T22:34:36.222Z,102659.00
2023-05-03T22:37:04.211Z,102659.41
2023-05-03T22:39:32.224Z,102650.53
2023-05-03T22:42:00.067Z,102647.38
2023-05-03T22:44:29.168Z,102635.94
2023-05-03T22:46:56.949Z,102633.59
2023-05-03T22:49:24.983Z,102639.34
2023-05-03T22:51:52.731Z,102635.81
2023-05-03T22:54:21.761Z,102650.97
2023-05-03T22:56:49.555Z,102644.09
2023-05-03T22:59:17.263Z,102638.81
2023-05-03T23:01:49.401Z,102639.38
2023-05-03T23:04:17.512Z,102648.34
2023-05-03T23:06:45.503Z,102639.00
2023-05-03T23:09:13.448Z,102629.50
2023-05-03T23:11:41.202Z,102642.59
2023-05-03T23:14:08.929Z,102655.81
2023-05-03T23:16:37.066Z,102648.34
2023-05-03T23:19:06.145Z,102649.97
2023-05-03T23:21:33.865Z,102640.66
2023-05-03T23:24:01.616Z,102624.28
2023-05-03T23:26:29.716Z,102640.50
2023-05-03T23:28:57.852Z,102641.16
2023-05-03T23:31:25.929Z,102643.97
2023-05-03T23:33:54.747Z,102629.69
2023-05-03T23:36:23.855Z,102614.22
2023-05-03T23:38:52.033Z,102610.63
2023-05-03T23:41:19.763Z,102609.38
2023-05-03T23:43:47.477Z,102598.59
2023-05-03T23:46:15.319Z,102586.19
2023-05-03T23:48:43.091Z,102567.19
2023-05-03T23:51:10.927Z,102575.28
2023-05-03T23:53:40.010Z,102593.94
2023-05-03T23:56:08.209Z,102592.19
2023-05-03T23:58:36.245Z,102592.06
